Time;durP1;ratioP1;P1;durP2;ratioP2;P2;SDS_P1;SDS_P2;PMS_P1;PMS_P2;Temp;Humidity;BMP_temperature;BMP_pressure;BME280_temperature;BME280_humidity;BME280_pressure;Samples;Min_cycle;Max_cycle;Signal;HPM_P1;HPM_P2
2023/12/16 00:01:34;;;;;;;4.77;2.00;;;;;;;1.83;100.00;100562.06;5067762;28;20260;-60
2023/12/16 00:04:01;;;;;;;1.37;1.27;;;;;;;1.88;100.00;100571.25;5071739;28;20276;-60
2023/12/16 00:06:28;;;;;;;1.10;1.00;;;;;;;1.90;100.00;100569.53;5071726;28;20203;-60
2023/12/16 00:08:56;;;;;;;5.00;1.70;;;;;;;1.84;100.00;100562.06;5072093;28;20594;-60
2023/12/16 00:11:23;;;;;;;1.40;1.27;;;;;;;1.78;100.00;100575.56;5071363;28;20195;-60
2023/12/16 00:13:50;;;;;;;4.37;2.23;;;;;;;1.80;100.00;100578.06;5071643;28;20473;-60
2023/12/16 00:16:17;;;;;;;1.87;1.13;;;;;;;1.81;100.00;100579.75;5071473;28;20195;-60
2023/12/16 00:18:44;;;;;;;2.07;1.70;;;;;;;1.87;100.00;100573.78;5071601;28;20664;-60
2023/12/16 00:21:10;;;;;;;1.40;1.00;;;;;;;1.75;100.00;100577.31;5071323;28;20203;-60
2023/12/16 00:23:37;;;;;;;2.40;1.53;;;;;;;1.77;100.00;100600.78;5071759;28;20283;-60
2023/12/16 00:26:06;;;;;;;2.00;1.47;;;;;;;1.73;100.00;100600.00;5071338;28;20706;-60
2023/12/16 00:28:32;;;;;;;2.03;1.30;;;;;;;1.77;100.00;100593.22;5071600;28;20230;-60
2023/12/16 00:30:59;;;;;;;0.97;0.97;;;;;;;1.80;100.00;100583.97;5071142;28;20683;-60
2023/12/16 00:33:26;;;;;;;1.43;1.10;;;;;;;1.77;100.00;100588.19;5071421;28;20556;-60
2023/12/16 00:35:53;;;;;;;3.60;1.30;;;;;;;1.77;100.00;100600.78;5069808;28;20210;-60
2023/12/16 00:38:20;;;;;;;6.60;2.63;;;;;;;1.76;100.00;100602.47;5069510;28;20198;-60
2023/12/16 00:40:47;;;;;;;1.30;1.20;;;;;;;1.83;100.00;100609.97;5071142;28;20219;-60
2023/12/16 00:43:15;;;;;;;4.17;1.87;;;;;;;1.77;100.00;100608.34;5071226;28;20202;-60
2023/12/16 00:45:42;;;;;;;4.13;1.60;;;;;;;1.82;100.00;100606.63;5071100;28;20203;-60
2023/12/16 00:48:08;;;;;;;1.77;1.30;;;;;;;1.74;100.00;100613.44;5070968;28;20257;-60
2023/12/16 00:50:38;;;;;;;2.40;1.70;;;;;;;1.73;100.00;100602.53;5070980;28;20198;-60
2023/12/16 00:53:04;;;;;;;1.00;0.90;;;;;;;1.72;100.00;100610.13;5070880;28;20198;-60
2023/12/16 00:55:31;;;;;;;2.47;1.87;;;;;;;1.75;100.00;100607.56;5070691;28;20301;-60
2023/12/16 00:57:58;;;;;;;1.30;1.20;;;;;;;1.78;100.00;100615.09;5071163;28;20222;-60
2023/12/16 01:00:26;;;;;;;1.27;1.17;;;;;;;1.71;100.00;100613.47;5070880;28;20195;-60
2023/12/16 01:02:53;;;;;;;3.50;2.17;;;;;;;1.69;100.00;100621.06;5070739;28;20649;-60
2023/12/16 01:05:20;;;;;;;1.17;1.00;;;;;;;1.68;100.00;100618.56;5071142;28;20229;-60
2023/12/16 01:07:47;;;;;;;2.60;1.57;;;;;;;1.83;100.00;100622.59;5070920;28;20234;-60
2023/12/16 01:10:14;;;;;;;6.03;2.00;;;;;;;1.73;100.00;100630.25;5070572;28;20199;-60
2023/12/16 01:12:41;;;;;;;1.73;1.30;;;;;;;1.67;100.00;100626.97;5070250;28;20289;-60
2023/12/16 01:15:09;;;;;;;0.97;0.90;;;;;;;1.74;100.00;100628.56;5070101;28;20199;-60
2023/12/16 01:17:37;;;;;;;2.23;1.83;;;;;;;1.70;100.00;100637.03;5070370;28;20248;-60
2023/12/16 01:20:05;;;;;;;2.47;2.20;;;;;;;1.74;100.00;100631.09;5070321;28;20214;-60
2023/12/16 01:22:32;;;;;;;2.63;1.97;;;;;;;1.73;100.00;100642.03;5070535;28;20203;-60
2023/12/16 01:24:59;;;;;;;2.53;1.13;;;;;;;1.80;100.00;100636.06;5070196;28;20218;-60
2023/12/16 01:27:25;;;;;;;2.10;1.47;;;;;;;1.79;100.00;100640.28;5069839;28;20735;-60
2023/12/16 01:29:52;;;;;;;4.43;1.13;;;;;;;1.74;100.00;100631.09;5070204;28;20202;-60
2023/12/16 01:32:19;;;;;;;1.77;1.00;;;;;;;1.72;100.00;100632.81;5070127;28;20198;-60
2023/12/16 01:34:47;;;;;;;0.97;0.87;;;;;;;1.76;100.00;100632.75;5070255;28;20202;-60
2023/12/16 01:37:14;;;;;;;3.17;0.93;;;;;;;1.75;100.00;100635.28;5070114;28;20203;-60
2023/12/16 01:39:41;;;;;;;3.30;1.20;;;;;;;1.80;100.00;100641.09;5069865;28;20209;-60
2023/12/16 01:42:08;;;;;;;1.53;1.07;;;;;;;1.76;100.00;100636.94;5069988;28;20208;-60
2023/12/16 01:44:34;;;;;;;1.23;1.13;;;;;;;1.82;100.00;100636.88;5070402;28;20210;-60
2023/12/16 01:47:02;;;;;;;2.27;1.63;;;;;;;1.78;100.00;100640.31;5069827;28;20293;-60
2023/12/16 01:49:28;;;;;;;1.77;1.67;;;;;;;1.74;100.00;100638.66;5070195;28;20206;-60
2023/12/16 01:51:57;;;;;;;2.27;1.70;;;;;;;1.79;100.00;100639.44;5069689;28;20395;-60
2023/12/16 01:54:25;;;;;;;0.90;0.90;;;;;;;1.80;100.00;100638.56;5069558;28;20209;-60
2023/12/16 01:56:57;;;;;;;3.93;1.43;;;;;;;1.79;100.00;100647.00;5069609;28;20198;-60
2023/12/16 01:59:26;;;;;;;3.07;2.37;;;;;;;1.77;100.00;100643.66;5069737;28;20646;-60
2023/12/16 02:01:53;;;;;;;3.23;1.53;;;;;;;1.78;100.00;100645.34;5069398;28;20694;-60
2023/12/16 02:04:20;;;;;;;1.13;0.67;;;;;;;1.82;100.00;100652.00;5069729;28;20206;-60
2023/12/16 02:06:47;;;;;;;1.17;1.07;;;;;;;1.79;100.00;100647.00;5068781;28;20199;-60
2023/12/16 02:09:17;;;;;;;2.10;1.73;;;;;;;1.74;100.00;100658.81;5069299;28;20707;-60
2023/12/16 02:11:44;;;;;;;1.60;1.37;;;;;;;1.80;100.00;100654.56;5069267;28;20195;-60
2023/12/16 02:14:11;;;;;;;1.47;1.37;;;;;;;1.73;100.00;100659.69;5069457;28;20577;-60
2023/12/16 02:16:38;;;;;;;1.70;0.90;;;;;;;1.72;100.00;100660.53;5069170;28;20203;-60
2023/12/16 02:19:12;;;;;;;2.23;1.80;;;;;;;1.75;100.00;100668.06;5069136;28;20683;-60
2023/12/16 02:21:39;;;;;;;1.73;1.63;;;;;;;1.67;100.00;100662.28;5069161;28;20206;-60
2023/12/16 02:24:07;;;;;;;1.73;1.00;;;;;;;1.70;100.00;100665.59;5069275;28;20293;-60
2023/12/16 02:26:34;;;;;;;1.47;1.37;;;;;;;1.66;100.00;100669.00;5068472;28;20195;-60
2023/12/16 02:29:01;;;;;;;4.27;2.17;;;;;;;1.73;100.00;100675.63;5068932;28;20234;-60
2023/12/16 02:31:29;;;;;;;2.50;1.77;;;;;;;1.77;100.00;100679.78;5069141;28;20202;-60
2023/12/16 02:33:55;;;;;;;1.10;1.10;;;;;;;1.77;100.00;100682.31;5068883;28;20774;-60
2023/12/16 02:36:22;;;;;;;1.50;1.40;;;;;;;1.70;100.00;100682.41;5068702;28;20695;-60
2023/12/16 02:38:49;;;;;;;2.67;1.33;;;;;;;1.73;100.00;100682.38;5068849;28;20205;-60
2023/12/16 02:41:17;;;;;;;2.37;1.40;;;;;;;1.75;100.00;100685.72;5069044;28;20272;-60
2023/12/16 02:43:44;;;;;;;1.73;1.03;;;;;;;1.76;100.00;100688.22;5068872;28;20206;-60
2023/12/16 02:46:11;;;;;;;1.87;1.47;;;;;;;1.75;100.00;100694.13;5068622;28;20213;-60
2023/12/16 02:48:38;;;;;;;1.17;1.13;;;;;;;1.69;100.00;100694.19;5068516;28;20241;-60
2023/12/16 02:51:06;;;;;;;3.23;0.90;;;;;;;1.79;100.00;100692.41;5068592;28;20683;-60
2023/12/16 02:53:32;;;;;;;4.30;1.27;;;;;;;1.79;100.00;100693.22;5068547;28;20659;-60
2023/12/16 02:55:59;;;;;;;3.43;1.63;;;;;;;1.77;100.00;100709.22;5068592;28;20223;-60
2023/12/16 02:58:27;;;;;;;1.83;1.17;;;;;;;1.72;100.00;100716.00;5068505;28;20199;-60
2023/12/16 03:00:54;;;;;;;3.10;1.50;;;;;;;1.68;100.00;100705.09;5068324;28;20210;-60
2023/12/16 03:03:21;;;;;;;2.17;1.57;;;;;;;1.69;100.00;100716.88;5068444;28;20213;-60
2023/12/16 03:05:48;;;;;;;4.10;2.07;;;;;;;1.71;100.00;100720.19;5069016;28;20198;-60
2023/12/16 03:08:15;;;;;;;2.00;1.13;;;;;;;1.69;100.00;100726.13;5068159;28;20234;-60
2023/12/16 03:10:42;;;;;;;1.40;1.23;;;;;;;1.69;100.00;100736.22;5066777;28;20195;-61
2023/12/16 03:13:08;;;;;;;2.93;1.00;;;;;;;1.75;100.00;100726.06;5067404;28;20199;-60
2023/12/16 03:15:37;;;;;;;4.33;1.53;;;;;;;1.75;100.00;100726.06;5068318;28;20202;-60
2023/12/16 03:18:04;;;;;;;1.67;1.17;;;;;;;1.81;100.00;100733.56;5068306;28;20202;-60
2023/12/16 03:20:31;;;;;;;2.30;1.60;;;;;;;1.74;100.00;100734.47;5068099;28;20198;-60
2023/12/16 03:22:57;;;;;;;3.67;1.33;;;;;;;1.74;100.00;100735.28;5068574;28;20199;-60
2023/12/16 03:25:24;;;;;;;1.80;1.70;;;;;;;1.73;100.00;100737.84;5068396;28;20202;-60
2023/12/16 03:27:51;;;;;;;1.73;1.57;;;;;;;1.68;100.00;100740.41;5068219;28;20634;-60
2023/12/16 03:30:18;;;;;;;2.00;1.90;;;;;;;1.82;100.00;100750.38;5068273;28;20194;-60
2023/12/16 03:32:46;;;;;;;2.70;1.23;;;;;;;1.86;100.00;100753.69;5068339;28;20739;-60
2023/12/16 03:35:13;;;;;;;4.70;1.70;;;;;;;1.76;100.00;100760.50;5068448;28;20216;-60
2023/12/16 03:37:40;;;;;;;1.67;1.57;;;;;;;1.83;100.00;100754.53;5069647;28;20203;-60
2023/12/16 03:40:08;;;;;;;0.93;0.93;;;;;;;1.78;100.00;100756.28;5072244;28;20817;-60
2023/12/16 03:42:35;;;;;;;2.43;1.53;;;;;;;1.71;100.00;100762.22;5072459;28;20202;-60
2023/12/16 03:45:02;;;;;;;1.43;1.10;;;;;;;1.82;100.00;100768.00;5072485;28;20210;-60
2023/12/16 03:47:28;;;;;;;2.27;1.70;;;;;;;1.84;100.00;100760.44;5072114;28;20628;-60
2023/12/16 03:49:57;;;;;;;2.20;1.60;;;;;;;1.77;100.00;100764.69;5071923;28;20202;-60
2023/12/16 03:52:23;;;;;;;1.83;1.23;;;;;;;1.77;100.00;100769.72;5072209;28;20289;-60
2023/12/16 03:54:50;;;;;;;2.40;1.80;;;;;;;1.77;100.00;100774.78;5071778;28;20206;-60
2023/12/16 03:57:17;;;;;;;1.80;1.23;;;;;;;1.80;100.00;100772.22;5071901;28;20205;-60
2023/12/16 03:59:44;;;;;;;2.10;1.57;;;;;;;1.78;100.00;100773.94;5071844;28;20213;-60
2023/12/16 04:02:10;;;;;;;3.03;1.20;;;;;;;1.78;100.00;100781.50;5071781;28;20590;-60
2023/12/16 04:04:37;;;;;;;2.20;1.07;;;;;;;1.80;100.00;100774.75;5071639;28;20570;-60
2023/12/16 04:07:05;;;;;;;1.57;1.13;;;;;;;1.82;100.00;100778.09;5071827;28;20198;-60
2023/12/16 04:09:32;;;;;;;4.17;1.70;;;;;;;1.80;100.00;100779.78;5071568;28;20234;-60
2023/12/16 04:11:59;;;;;;;1.73;1.13;;;;;;;1.78;100.00;100776.47;5071774;28;20199;-60
2023/12/16 04:14:26;;;;;;;0.90;0.90;;;;;;;1.77;100.00;100782.34;5071484;28;20199;-60
2023/12/16 04:16:53;;;;;;;1.37;1.27;;;;;;;1.73;100.00;100788.28;5071707;28;20203;-60
2023/12/16 04:19:20;;;;;;;2.57;1.43;;;;;;;1.87;100.00;100801.59;5071632;28;20226;-60
2023/12/16 04:21:47;;;;;;;1.63;1.20;;;;;;;1.79;100.00;100803.34;5071483;28;20202;-60
2023/12/16 04:24:15;;;;;;;4.70;1.03;;;;;;;1.81;100.00;100806.69;5071562;28;20663;-60
2023/12/16 04:26:42;;;;;;;1.13;0.97;;;;;;;1.81;100.00;100806.69;5071888;28;20207;-60
2023/12/16 04:29:09;;;;;;;1.83;1.60;;;;;;;1.89;100.00;100810.00;5071176;28;20231;-60
2023/12/16 04:31:35;;;;;;;1.37;1.27;;;;;;;1.91;100.00;100820.88;5071135;28;20207;-60
2023/12/16 04:34:02;;;;;;;3.30;2.13;;;;;;;1.85;100.00;100823.47;5071279;28;20676;-60
2023/12/16 04:36:29;;;;;;;1.83;1.70;;;;;;;1.86;100.00;100815.03;5071300;28;20206;-60
2023/12/16 04:38:56;;;;;;;1.53;1.43;;;;;;;1.85;100.00;100813.38;5071273;28;20202;-60
2023/12/16 04:41:24;;;;;;;3.77;1.43;;;;;;;1.81;100.00;100817.63;5071194;28;20198;-60
2023/12/16 04:43:53;;;;;;;1.17;1.07;;;;;;;1.87;100.00;100816.72;5071418;28;20203;-60
2023/12/16 04:46:21;;;;;;;3.43;1.50;;;;;;;1.90;100.00;100823.44;5071265;28;20213;-60
2023/12/16 04:48:48;;;;;;;2.60;1.93;;;;;;;1.79;100.00;100821.81;5070474;28;20223;-60
2023/12/16 04:51:14;;;;;;;1.93;1.10;;;;;;;1.78;100.00;100829.44;5070974;28;20198;-60
2023/12/16 04:53:41;;;;;;;1.63;1.10;;;;;;;1.80;100.00;100830.22;5070882;28;20206;-60
2023/12/16 04:56:08;;;;;;;3.60;1.43;;;;;;;1.85;100.00;100827.69;5070877;28;20206;-60
2023/12/16 04:58:37;;;;;;;1.23;1.07;;;;;;;1.85;100.00;100828.50;5070855;28;20191;-60
2023/12/16 05:01:04;;;;;;;2.23;1.53;;;;;;;1.82;100.00;100838.63;5070749;28;20207;-60
2023/12/16 05:03:31;;;;;;;1.67;1.57;;;;;;;1.77;100.00;100846.22;5070826;28;20260;-60
2023/12/16 05:05:58;;;;;;;2.50;1.90;;;;;;;1.80;100.00;100855.44;5070559;28;20202;-60
2023/12/16 05:08:25;;;;;;;1.53;1.40;;;;;;;1.83;100.00;100860.47;5070758;28;20234;-60
2023/12/16 05:10:52;;;;;;;1.67;1.03;;;;;;;1.73;100.00;100848.78;5070327;28;20718;-60
2023/12/16 05:13:18;;;;;;;3.77;1.70;;;;;;;1.77;100.00;100850.44;5070664;28;20247;-60
2023/12/16 05:15:47;;;;;;;0.87;0.87;;;;;;;1.74;100.00;100846.22;5070451;28;20202;-60
2023/12/16 05:18:13;;;;;;;0.83;0.80;;;;;;;1.78;100.00;100852.94;5070589;28;20206;-60
2023/12/16 05:20:40;;;;;;;1.53;0.87;;;;;;;1.83;100.00;100860.47;5070323;28;20210;-60
2023/12/16 05:23:07;;;;;;;2.13;1.37;;;;;;;1.86;100.00;100855.38;5070400;28;20199;-60
2023/12/16 05:25:35;;;;;;;1.80;1.17;;;;;;;1.77;100.00;100860.50;5070136;28;20199;-60
2023/12/16 05:28:02;;;;;;;1.27;1.13;;;;;;;1.74;100.00;100860.53;5070115;28;20671;-60
2023/12/16 05:30:29;;;;;;;5.07;1.53;;;;;;;1.79;100.00;100861.34;5070119;28;20198;-60
2023/12/16 05:32:57;;;;;;;3.67;1.80;;;;;;;1.87;100.00;100867.16;5070259;28;20207;-60
2023/12/16 05:35:24;;;;;;;2.43;1.07;;;;;;;1.83;100.00;100870.53;5070286;28;20209;-60
2023/12/16 05:37:51;;;;;;;4.27;1.73;;;;;;;1.86;100.00;100865.47;5069993;28;20413;-60
2023/12/16 05:40:17;;;;;;;1.27;1.00;;;;;;;1.81;100.00;100874.78;5070143;28;20210;-60
2023/12/16 05:42:44;;;;;;;4.17;1.27;;;;;;;1.85;100.00;100886.50;5070028;28;20627;-60
2023/12/16 05:45:13;;;;;;;2.63;1.13;;;;;;;1.84;100.00;100892.41;5070143;28;20555;-60
2023/12/16 05:47:40;;;;;;;2.90;1.47;;;;;;;1.80;100.00;100900.84;5069793;28;20202;-60
2023/12/16 05:50:09;;;;;;;4.30;2.33;;;;;;;1.72;100.00;100908.47;5069629;28;20241;-60
2023/12/16 05:52:36;;;;;;;1.53;1.43;;;;;;;1.76;100.00;100910.09;5069753;28;20241;-60
2023/12/16 05:55:03;;;;;;;6.63;1.97;;;;;;;1.84;100.00;100912.59;5069431;28;20222;-60
2023/12/16 05:57:30;;;;;;;1.47;1.17;;;;;;;1.74;100.00;100916.00;5069904;28;20195;-60
2023/12/16 05:59:57;;;;;;;1.50;1.23;;;;;;;1.75;100.00;100925.28;5068831;28;20205;-60
2023/12/16 06:02:24;;;;;;;1.67;1.23;;;;;;;1.75;100.00;100927.78;5069558;28;20202;-60
2023/12/16 06:04:50;;;;;;;0.83;0.77;;;;;;;1.78;100.00;100931.13;5069648;28;20201;-60
2023/12/16 06:07:19;;;;;;;1.23;0.80;;;;;;;1.69;100.00;100927.84;5069340;28;20706;-60
2023/12/16 06:09:46;;;;;;;1.60;1.50;;;;;;;1.67;100.00;100924.47;5069762;28;20234;-60
2023/12/16 06:12:13;;;;;;;3.83;1.57;;;;;;;1.68;100.00;100926.13;5069392;28;20213;-60
2023/12/16 06:14:39;;;;;;;1.17;1.13;;;;;;;1.65;100.00;100926.16;5069231;28;20198;-60
2023/12/16 06:17:07;;;;;;;4.07;2.70;;;;;;;1.65;100.00;100936.25;5069143;28;20209;-60
2023/12/16 06:19:33;;;;;;;3.63;1.97;;;;;;;1.59;100.00;100932.91;5069041;28;20205;-60
2023/12/16 06:22:01;;;;;;;1.90;1.37;;;;;;;1.67;100.00;100934.56;5069334;28;20198;-60
2023/12/16 06:24:29;;;;;;;0.97;0.93;;;;;;;1.57;100.00;100943.84;5069177;28;20203;-60
2023/12/16 06:26:56;;;;;;;1.17;1.00;;;;;;;1.55;100.00;100945.56;5069322;28;20375;-60
2023/12/16 06:29:22;;;;;;;3.30;1.37;;;;;;;1.58;100.00;100953.94;5069116;28;20234;-60
2023/12/16 06:31:49;;;;;;;1.97;1.53;;;;;;;1.46;100.00;100955.69;5068830;28;20198;-60
2023/12/16 06:34:18;;;;;;;1.13;1.03;;;;;;;1.52;100.00;100961.53;5069240;28;20198;-60
2023/12/16 06:36:45;;;;;;;2.03;1.67;;;;;;;1.47;100.00;100958.19;5069461;28;20683;-60
2023/12/16 06:39:12;;;;;;;3.57;1.33;;;;;;;1.43;100.00;100958.22;5068942;28;20238;-60
2023/12/16 06:41:40;;;;;;;1.90;1.13;;;;;;;1.52;100.00;100966.56;5068686;28;20621;-60
2023/12/16 06:44:07;;;;;;;1.13;1.13;;;;;;;1.46;100.00;100974.16;5068719;28;20202;-60
2023/12/16 06:46:34;;;;;;;4.53;2.27;;;;;;;1.56;100.00;100973.25;5068563;28;20651;-60
2023/12/16 06:49:01;;;;;;;2.70;1.40;;;;;;;1.57;100.00;100974.94;5068629;28;20226;-60
2023/12/16 06:51:27;;;;;;;3.40;2.23;;;;;;;1.57;100.00;100985.03;5068780;28;20198;-60
2023/12/16 06:53:54;;;;;;;3.93;1.47;;;;;;;1.54;100.00;100995.13;5068631;28;20751;-60
2023/12/16 06:56:21;;;;;;;1.50;1.40;;;;;;;1.55;100.00;100996.78;5068668;28;20198;-60
2023/12/16 06:58:49;;;;;;;4.47;2.07;;;;;;;1.73;100.00;101005.13;5068613;28;20202;-60
2023/12/16 07:01:16;;;;;;;3.30;1.80;;;;;;;1.65;100.00;101011.88;5068528;28;20198;-61
2023/12/16 07:03:43;;;;;;;2.23;2.03;;;;;;;1.64;100.00;101002.66;5068584;28;20585;-60
2023/12/16 07:06:10;;;;;;;2.97;1.47;;;;;;;1.56;100.00;101007.72;5068667;28;20205;-61
2023/12/16 07:08:37;;;;;;;3.87;1.53;;;;;;;1.63;100.00;101008.50;5068548;28;20267;-61
2023/12/16 07:11:04;;;;;;;1.63;1.20;;;;;;;1.72;100.00;101005.97;5068235;28;20282;-61
2023/12/16 07:13:31;;;;;;;1.40;1.17;;;;;;;1.73;100.00;101011.00;5068210;28;20583;-60
2023/12/16 07:16:04;;;;;;;2.20;1.87;;;;;;;1.78;100.00;101013.50;5068408;28;20230;-61
2023/12/16 07:18:31;;;;;;;2.23;1.13;;;;;;;1.76;100.00;101015.19;5068523;28;20199;-60
2023/12/16 07:20:57;;;;;;;4.50;1.90;;;;;;;1.79;100.00;101010.13;5068353;28;20703;-60
2023/12/16 07:23:24;;;;;;;1.87;1.37;;;;;;;1.82;100.00;101015.16;5068224;28;20202;-60
2023/12/16 07:25:51;;;;;;;1.13;1.03;;;;;;;1.86;100.00;101004.19;5068044;28;20234;-60
2023/12/16 07:28:18;;;;;;;1.40;1.30;;;;;;;1.81;100.00;101013.50;5068367;28;20198;-60
2023/12/16 07:30:45;;;;;;;1.43;1.27;;;;;;;1.81;100.00;101008.44;5068311;28;20234;-60
2023/12/16 07:33:14;;;;;;;1.83;1.70;;;;;;;1.76;100.00;101021.06;5068130;28;20206;-61
2023/12/16 07:35:40;;;;;;;1.73;1.17;;;;;;;1.83;100.00;101021.84;5068296;28;20300;-60
2023/12/16 07:38:08;;;;;;;1.40;1.20;;;;;;;1.84;100.00;101022.72;5068104;28;20202;-60
2023/12/16 07:40:35;;;;;;;1.53;1.40;;;;;;;1.84;100.00;101022.72;5067964;28;20745;-60
2023/12/16 07:43:02;;;;;;;2.03;1.77;;;;;;;1.89;100.00;101021.00;5068181;28;20198;-60
2023/12/16 07:45:29;;;;;;;2.20;1.53;;;;;;;1.86;100.00;101029.41;5067995;28;20296;-60
2023/12/16 07:47:56;;;;;;;0.87;0.87;;;;;;;1.99;100.00;101026.00;5068072;28;20198;-60
2023/12/16 07:50:25;;;;;;;8.63;2.87;;;;;;;2.01;100.00;101031.88;5067815;28;20229;-60
2023/12/16 07:52:51;;;;;;;3.53;2.33;;;;;;;1.90;100.00;101027.72;5067972;28;20379;-60
2023/12/16 07:55:18;;;;;;;5.50;3.10;;;;;;;1.93;100.00;101025.19;5067741;28;20195;-60
2023/12/16 07:57:45;;;;;;;3.43;1.90;;;;;;;1.91;100.00;101039.50;5067957;28;20222;-60
2023/12/16 08:00:12;;;;;;;1.67;0.93;;;;;;;1.89;100.00;101038.66;5068064;28;20210;-60
2023/12/16 08:02:39;;;;;;;2.67;1.70;;;;;;;1.88;100.00;101040.34;5067863;28;20201;-60
2023/12/16 08:05:07;;;;;;;12.60;2.53;;;;;;;1.83;100.00;101037.00;5067888;28;20614;-60
2023/12/16 08:07:34;;;;;;;5.63;1.30;;;;;;;1.78;100.00;101036.19;5067853;28;20230;-61
2023/12/16 08:10:01;;;;;;;2.07;1.43;;;;;;;1.73;100.00;101040.41;5068000;28;20240;-60
2023/12/16 08:12:27;;;;;;;1.47;1.37;;;;;;;1.84;100.00;101037.84;5067681;28;20482;-60
2023/12/16 08:14:55;;;;;;;3.07;1.90;;;;;;;1.76;100.00;101045.44;5067838;28;20203;-60
2023/12/16 08:17:22;;;;;;;3.90;1.93;;;;;;;1.79;100.00;101045.44;5067766;28;20305;-60
2023/12/16 08:19:49;;;;;;;2.50;1.63;;;;;;;1.75;100.00;101053.88;5067424;28;20290;-60
2023/12/16 08:22:16;;;;;;;2.13;1.93;;;;;;;1.88;100.00;101052.94;5074477;28;20369;-60
2023/12/16 08:24:44;;;;;;;2.53;1.40;;;;;;;1.87;100.00;101056.31;5070801;28;20194;-60
2023/12/16 08:27:11;;;;;;;2.53;1.93;;;;;;;1.79;100.00;101055.53;5070735;28;20195;-60
2023/12/16 08:29:38;;;;;;;1.77;1.37;;;;;;;1.88;100.00;101055.47;5069874;28;20677;-61
2023/12/16 08:32:05;;;;;;;1.43;1.13;;;;;;;1.85;100.00;101058.00;5070271;28;20206;-61
2023/12/16 08:34:33;;;;;;;0.77;0.77;;;;;;;1.93;100.00;101058.81;5071257;28;20206;-60
2023/12/16 08:37:00;;;;;;;2.23;1.13;;;;;;;1.86;100.00;101056.31;5071504;28;20237;-60
2023/12/16 08:39:27;;;;;;;1.90;1.57;;;;;;;1.88;100.00;101054.63;5071249;28;20221;-60
2023/12/16 08:41:55;;;;;;;1.03;0.40;;;;;;;1.94;100.00;101064.69;5071529;28;20355;-58
2023/12/16 08:44:22;;;;;;;1.53;1.23;;;;;;;1.91;100.00;101059.66;5071105;28;20214;-59
2023/12/16 08:46:49;;;;;;;2.93;1.30;;;;;;;1.81;100.00;101066.44;5070995;28;20206;-59
2023/12/16 08:49:16;;;;;;;1.60;1.00;;;;;;;1.91;100.00;101062.19;5071072;28;20684;-59
2023/12/16 08:51:43;;;;;;;1.23;1.17;;;;;;;1.86;100.00;101066.41;5071668;28;20566;-59
2023/12/16 08:54:10;;;;;;;1.23;1.07;;;;;;;1.86;100.00;101067.25;5070836;28;20202;-59
2023/12/16 08:56:37;;;;;;;3.37;2.20;;;;;;;1.94;100.00;101072.25;5070925;28;20237;-59
2023/12/16 08:59:05;;;;;;;2.77;1.47;;;;;;;1.96;100.00;101066.38;5071416;28;20285;-59
2023/12/16 09:01:33;;;;;;;1.97;1.37;;;;;;;2.03;100.00;101070.53;5070862;28;20203;-59
2023/12/16 09:04:00;;;;;;;0.97;0.87;;;;;;;2.02;100.00;101078.94;5070723;28;20230;-59
2023/12/16 09:06:27;;;;;;;0.87;0.83;;;;;;;1.96;100.00;101068.06;5070706;28;20285;-59
2023/12/16 09:08:54;;;;;;;1.37;1.27;;;;;;;1.98;100.00;101069.72;5070750;28;20573;-58
2023/12/16 09:11:21;;;;;;;3.70;1.80;;;;;;;2.03;100.00;101069.69;5070420;28;20238;-59
2023/12/16 09:13:47;;;;;;;3.83;1.87;;;;;;;1.98;100.00;101067.22;5070482;28;20213;-59
2023/12/16 09:16:16;;;;;;;1.90;1.80;;;;;;;2.03;100.00;101068.00;5070489;28;20836;-59
2023/12/16 09:18:42;;;;;;;2.23;1.20;;;;;;;2.15;100.00;101068.78;5070675;28;20202;-59
2023/12/16 09:21:09;;;;;;;4.83;1.50;;;;;;;2.12;100.00;101063.75;5070529;28;20202;-59
2023/12/16 09:23:36;;;;;;;1.00;1.00;;;;;;;1.98;100.00;101064.69;5070396;28;20698;-59
2023/12/16 09:26:05;;;;;;;2.70;1.63;;;;;;;2.08;100.00;101057.91;5070611;28;20244;-59
2023/12/16 09:28:31;;;;;;;3.83;1.33;;;;;;;2.10;100.00;101062.94;5070306;28;20199;-59
2023/12/16 09:30:58;;;;;;;3.17;1.27;;;;;;;2.02;100.00;101058.75;5070374;28;20245;-58
2023/12/16 09:33:26;;;;;;;1.80;1.37;;;;;;;2.09;100.00;101063.78;5070122;28;20206;-59
2023/12/16 09:35:53;;;;;;;1.27;0.80;;;;;;;2.20;100.00;101072.13;5070164;28;20214;-59
2023/12/16 09:38:20;;;;;;;1.57;1.17;;;;;;;2.23;100.00;101059.47;5070412;28;20225;-59
2023/12/16 09:40:47;;;;;;;3.10;1.53;;;;;;;2.22;100.00;101062.88;5070097;28;20229;-59
2023/12/16 09:43:17;;;;;;;1.10;1.00;;;;;;;2.09;100.00;101061.25;5070009;28;20198;-59
2023/12/16 09:45:47;;;;;;;2.20;1.73;;;;;;;2.15;100.00;101058.69;5069987;28;20229;-59
2023/12/16 09:48:17;;;;;;;1.50;1.40;;;;;;;2.21;100.00;101063.69;5070017;28;20479;-59
2023/12/16 09:50:46;;;;;;;0.93;0.93;;;;;;;2.21;100.00;101063.69;5069733;28;20226;-59
2023/12/16 09:53:13;;;;;;;1.83;1.03;;;;;;;2.08;100.00;101062.09;5069949;28;20198;-59
2023/12/16 09:55:41;;;;;;;3.03;1.93;;;;;;;2.12;100.00;101054.50;5069514;28;20195;-59
2023/12/16 09:58:11;;;;;;;3.53;1.57;;;;;;;2.17;100.00;101062.06;5069781;28;20679;-59
2023/12/16 10:00:44;;;;;;;1.50;1.00;;;;;;;2.34;100.00;101067.00;5069672;28;20214;-59
2023/12/16 10:03:11;;;;;;;2.67;1.27;;;;;;;2.16;100.00;101067.94;5069503;28;20209;-59
2023/12/16 10:05:37;;;;;;;1.33;1.20;;;;;;;2.21;100.00;101068.75;5069517;28;20198;-59
2023/12/16 10:08:06;;;;;;;1.23;1.07;;;;;;;2.12;100.00;101068.81;5069448;28;20210;-59
2023/12/16 10:10:32;;;;;;;1.37;1.23;;;;;;;2.14;100.00;101067.13;5069236;28;20238;-59
2023/12/16 10:13:03;;;;;;;1.13;1.03;;;;;;;2.22;100.00;101065.38;5069373;28;20206;-59
2023/12/16 10:15:31;;;;;;;1.40;1.20;;;;;;;2.26;100.00;101069.56;5069368;28;20630;-59
2023/12/16 10:18:00;;;;;;;2.20;1.33;;;;;;;2.26;100.00;101062.81;5069469;28;20249;-59
2023/12/16 10:20:27;;;;;;;0.80;0.80;;;;;;;2.23;100.00;101072.09;5069398;28;20213;-59
2023/12/16 10:22:54;;;;;;;1.70;1.60;;;;;;;2.25;100.00;101065.38;5069539;28;20573;-59
2023/12/16 10:25:22;;;;;;;1.37;1.27;;;;;;;2.35;100.00;101066.13;5069272;28;20218;-59
2023/12/16 10:27:49;;;;;;;2.03;1.53;;;;;;;2.31;100.00;101059.44;5069333;28;20202;-59
2023/12/16 10:30:16;;;;;;;1.87;1.33;;;;;;;2.31;100.00;101065.31;5069039;28;20222;-59
2023/12/16 10:32:43;;;;;;;1.33;1.23;;;;;;;2.27;100.00;101061.16;5069128;28;20194;-59
2023/12/16 10:35:10;;;;;;;4.97;1.70;;;;;;;2.28;100.00;101062.81;5069073;28;20234;-59
2023/12/16 10:37:47;;;;;;;0.87;0.87;;;;;;;2.01;100.00;101057.09;5069175;28;20194;-59
2023/12/16 10:40:15;;;;;;;0.73;0.73;;;;;;;2.08;100.00;101057.06;5068923;28;20190;-59
2023/12/16 10:42:45;;;;;;;0.93;0.87;;;;;;;2.15;100.00;101048.59;5068952;28;20566;-59
2023/12/16 10:45:13;;;;;;;2.13;1.27;;;;;;;2.20;100.00;101056.97;5068993;28;20199;-59
2023/12/16 10:47:41;;;;;;;1.97;1.17;;;;;;;2.33;100.00;101050.16;5068330;28;20213;-59
2023/12/16 10:50:09;;;;;;;1.23;0.93;;;;;;;2.33;100.00;101056.06;5068528;28;20727;-59
2023/12/16 10:52:43;;;;;;;0.73;0.73;;;;;;;2.33;100.00;101058.59;5068637;28;20203;-59
2023/12/16 10:55:17;;;;;;;1.60;0.90;;;;;;;2.54;100.00;101061.81;5068841;28;20494;-59
2023/12/16 10:57:49;;;;;;;1.20;0.70;;;;;;;2.39;100.00;101063.59;5068855;28;20194;-59
2023/12/16 11:00:22;;;;;;;1.00;0.97;;;;;;;2.43;100.00;101070.28;5068566;28;20585;-59
2023/12/16 11:03:00;;;;;;;0.67;0.67;;;;;;;2.49;100.00;101064.34;5068563;28;20586;-59
2023/12/16 11:05:31;;;;;;;1.20;1.10;;;;;;;2.22;100.00;101050.25;5068504;28;20198;-59
2023/12/16 11:08:01;;;;;;;1.10;0.60;;;;;;;2.38;100.00;101072.00;5069172;28;20195;-59
2023/12/16 11:10:28;;;;;;;1.07;0.97;;;;;;;2.46;100.00;101065.22;5068794;28;20260;-59
2023/12/16 11:12:58;;;;;;;0.60;0.60;;;;;;;2.56;100.00;101075.25;5068753;28;20207;-61
2023/12/16 11:15:26;;;;;;;1.13;0.83;;;;;;;2.38;100.00;101072.00;5067654;28;20194;-60
2023/12/16 11:17:58;;;;;;;1.17;1.03;;;;;;;2.41;100.00;101069.44;5066709;28;20239;-60
2023/12/16 11:20:32;;;;;;;1.53;1.10;;;;;;;2.45;100.00;101073.66;5067114;28;20199;-60
2023/12/16 11:23:00;;;;;;;1.73;1.57;;;;;;;2.52;100.00;101071.06;5068414;28;20202;-60
2023/12/16 11:25:27;;;;;;;1.70;1.60;;;;;;;2.51;100.00;101075.28;5068544;28;20198;-60